createdAt,value
2023-03-03T00:02:50.121Z,45.00
2023-03-03T00:08:54.355Z,44.50
2023-03-03T00:14:58.731Z,50.75
2023-03-03T00:21:05.583Z,48.50
2023-03-03T00:27:36.269Z,44.75
2023-03-03T00:34:00.673Z,46.00
2023-03-03T00:40:26.035Z,44.25
2023-03-03T00:46:31.214Z,43.25
2023-03-03T00:52:41.926Z,45.50
2023-03-03T00:58:48.564Z,48.50
2023-03-03T01:04:57.772Z,50.00
2023-03-03T01:11:09.676Z,47.50
2023-03-03T01:17:15.539Z,48.00
2023-03-03T01:23:18.761Z,43.00
2023-03-03T01:29:25.711Z,50.00
2023-03-03T01:35:30.544Z,51.25
2023-03-03T01:41:36.033Z,51.50
2023-03-03T01:47:50.157Z,44.25
2023-03-03T01:53:58.732Z,50.50
2023-03-03T02:00:05.634Z,45.50
2023-03-03T02:06:39.389Z,47.25
2023-03-03T02:12:48.256Z,44.75
2023-03-03T02:18:55.577Z,50.50
2023-03-03T02:25:03.987Z,50.75
2023-03-03T02:31:19.342Z,43.00
2023-03-03T02:37:26.982Z,46.75
2023-03-03T02:43:44.927Z,49.50
2023-03-03T02:49:47.393Z,47.25
2023-03-03T02:55:54.220Z,47.50
2023-03-03T03:01:56.894Z,46.25
2023-03-03T03:08:01.166Z,42.75
2023-03-03T03:14:10.961Z,44.75
2023-03-03T03:20:16.350Z,45.50
2023-03-03T03:26:22.265Z,46.50
2023-03-03T03:32:30.246Z,42.25
2023-03-03T03:38:38.118Z,43.75
2023-03-03T03:44:43.156Z,46.50
2023-03-03T03:50:49.375Z,47.00
2023-03-03T03:56:52.463Z,43.50
2023-03-03T04:02:56.533Z,46.75
2023-03-03T04:09:02.525Z,45.50
2023-03-03T04:15:10.728Z,40.75
2023-03-03T04:21:17.180Z,47.75
2023-03-03T04:27:22.827Z,46.00
2023-03-03T04:33:26.941Z,39.50
2023-03-03T04:39:30.895Z,45.00
2023-03-03T04:45:34.839Z,50.25
2023-03-03T04:51:37.602Z,47.75
2023-03-03T04:57:46.560Z,45.00
2023-03-03T05:03:50.285Z,47.25
2023-03-03T12:19:24.785Z,48.00
2023-03-03T12:33:36.399Z,60.00
2023-03-03T12:40:43.535Z,59.25
2023-03-03T12:47:36.745Z,54.00
2023-03-03T12:54:44.583Z,54.25
2023-03-03T13:08:47.592Z,50.75
2023-03-03T13:16:01.059Z,47.80
2023-03-03T13:29:48.042Z,52.25
2023-03-03T13:43:33.587Z,54.50
2023-03-03T13:50:19.277Z,51.00
2023-03-03T13:57:17.068Z,52.00
2023-03-03T14:04:04.957Z,48.50
2023-03-03T14:10:36.522Z,53.25
2023-03-03T14:17:13.047Z,55.50
2023-03-03T14:23:45.066Z,46.50
2023-03-03T14:29:48.560Z,52.00
2023-03-03T14:36:12.545Z,50.00
2023-03-03T14:42:33.952Z,60.75
2023-03-03T14:48:52.334Z,51.75
2023-03-03T14:54:57.648Z,50.25
2023-03-03T15:01:26.540Z,50.50
2023-03-03T15:07:38.362Z,53.25
2023-03-03T15:13:40.914Z,48.25
2023-03-03T15:19:52.404Z,55.75
2023-03-03T15:26:19.426Z,52.25
2023-03-03T15:32:31.420Z,59.50
2023-03-03T15:38:47.605Z,66.25
2023-03-03T15:45:06.557Z,57.25
2023-03-03T15:51:50.740Z,55.00
2023-03-03T15:58:37.041Z,56.00
2023-03-03T16:05:01.809Z,53.00
2023-03-03T16:11:19.278Z,56.50
2023-03-03T16:17:35.118Z,53.00
2023-03-03T16:23:58.241Z,48.75
2023-03-03T16:30:46.644Z,58.75
2023-03-03T16:37:10.053Z,52.50
2023-03-03T16:43:16.363Z,56.75
2023-03-03T16:49:43.500Z,41.75
2023-03-03T16:56:14.637Z,55.25
2023-03-03T17:02:46.602Z,55.75
2023-03-03T17:09:03.670Z,61.00
2023-03-03T17:15:17.894Z,54.00
2023-03-03T17:21:30.215Z,58.50
2023-03-03T17:27:50.531Z,59.25
2023-03-03T17:34:16.399Z,62.00
2023-03-03T17:41:03.493Z,61.50
2023-03-03T17:47:13.448Z,59.00
2023-03-03T17:53:40.086Z,58.75
2023-03-03T17:59:42.163Z,63.50
2023-03-03T18:06:03.058Z,59.75
2023-03-03T18:12:10.645Z,64.75
2023-03-03T18:18:26.749Z,62.75
2023-03-03T18:24:33.935Z,63.00
2023-03-03T18:31:05.362Z,61.50
2023-03-03T18:37:37.482Z,62.25
2023-03-03T18:43:46.108Z,65.00
2023-03-03T18:49:48.719Z,61.00
2023-03-03T18:55:54.298Z,63.00
2023-03-03T19:02:11.492Z,63.25
2023-03-03T19:08:25.084Z,59.75
2023-03-03T19:14:34.696Z,66.00
2023-03-03T19:20:42.236Z,61.25
2023-03-03T19:27:09.610Z,63.50
2023-03-03T19:33:28.324Z,62.00
2023-03-03T19:39:59.166Z,62.75
2023-03-03T19:46:38.302Z,68.00
2023-03-03T19:52:57.896Z,63.25
2023-03-03T19:59:06.526Z,67.25
2023-03-03T20:05:20.853Z,63.00
2023-03-03T20:11:48.189Z,63.25
2023-03-03T20:18:10.169Z,63.75
2023-03-03T20:24:43.614Z,70.50
2023-03-03T20:30:49.624Z,67.75
2023-03-03T20:37:13.261Z,67.50
2023-03-03T20:43:43.993Z,65.75
2023-03-03T20:50:20.327Z,69.50
2023-03-03T20:56:52.514Z,66.25
2023-03-03T21:02:57.335Z,68.75
2023-03-03T21:08:59.538Z,65.25
2023-03-03T21:15:08.146Z,70.25
2023-03-03T21:21:10.470Z,62.75
2023-03-03T21:27:25.872Z,67.25
2023-03-03T21:33:45.315Z,64.00
2023-03-03T21:40:25.257Z,66.50
2023-03-03T21:46:27.931Z,71.25
2023-03-03T21:52:30.616Z,69.75
2023-03-03T21:58:37.105Z,69.00
2023-03-03T22:04:41.334Z,70.33
2023-03-03T22:10:43.589Z,65.00
2023-03-03T22:16:46.042Z,67.33
2023-03-03T22:22:48.249Z,68.33
2023-03-03T22:28:50.410Z,68.25
2023-03-03T22:34:52.701Z,65.75
2023-03-03T22:40:55.971Z,67.33
2023-03-03T22:46:58.118Z,71.67
2023-03-03T22:53:01.574Z,65.50
2023-03-03T22:59:03.628Z,67.25
2023-03-03T23:05:11.173Z,65.75
2023-03-03T23:11:13.836Z,69.67
2023-03-03T23:17:16.026Z,67.00
2023-03-03T23:23:18.109Z,64.25
2023-03-03T23:29:20.570Z,62.00
2023-03-03T23:35:22.964Z,72.25
2023-03-03T23:41:26.527Z,63.25
2023-03-03T23:47:28.716Z,67.75
2023-03-03T23:53:31.126Z,67.00
2023-03-03T23:59:33.296Z,69.50
